Time,TemperatureF,DewpointF,PressureIn,WindDirection,WindDirectionDegrees,WindSpeedMPH,WindSpeedGustMPH,Humidity,HourlyPrecipIn,Conditions,Clouds,dailyrainin,SoftwareType,DateUTC
2013-03-11 16:10:00,45.2,27.2,29.99,SSE,152,6.0,6.0,49,0.00,,,0.01,Wunderground v.1.15,2013-03-11 21:10:00,
2013-03-11 16:20:00,46.2,28.6,29.99,South,187,4.0,7.0,50,0.00,,,0.01,Wunderground v.1.15,2013-03-11 21:20:00,
2013-03-11 16:30:00,45.6,28.0,29.98,South,186,6.0,6.0,50,0.00,,,0.01,Wunderground v.1.15,2013-03-11 21:30:00,
2013-03-11 16:40:00,45.6,28.0,29.98,SE,145,7.0,7.0,50,0.00,,,0.01,Wunderground v.1.15,2013-03-11 21:40:00,
2013-03-11 16:50:00,45.3,28.2,29.98,South,173,6.0,6.0,51,0.00,,,0.01,Wunderground v.1.15,2013-03-11 21:50:00,
2013-03-11 17:00:00,45.7,29.1,29.98,South,187,5.0,8.0,52,0.00,,,0.01,Wunderground v.1.15,2013-03-11 22:00:00,
2013-03-11 17:10:00,46.1,29.4,29.98,South,181,6.0,6.0,52,0.00,,,0.01,Wunderground v.1.15,2013-03-11 22:10:00,
2013-03-11 17:20:00,46.3,28.7,29.98,South,177,6.0,6.0,50,0.00,,,0.01,Wunderground v.1.15,2013-03-11 22:20:00,
2013-03-11 17:30:00,45.9,29.2,29.97,SSE,163,6.0,6.0,52,0.00,,,0.01,Wunderground v.1.15,2013-03-11 22:30:00,
2013-03-11 17:40:00,46.1,29.4,29.97,SSE,166,6.0,6.0,52,0.00,,,0.01,Wunderground v.1.15,2013-03-11 22:40:00,
2013-03-11 17:50:00,45.9,29.7,29.97,South,173,5.0,5.0,53,0.00,,,0.01,Wunderground v.1.15,2013-03-11 22:50:00,
2013-03-11 18:00:00,45.8,30.1,29.97,SSE,166,5.0,5.0,54,0.00,,,0.01,Wunderground v.1.15,2013-03-11 23:00:00,
2013-03-11 18:10:00,45.6,30.3,29.97,SE,135,5.0,5.0,55,0.00,,,0.01,Wunderground v.1.15,2013-03-11 23:10:00,
2013-03-11 18:20:00,46.0,31.2,29.97,South,183,5.0,6.0,56,0.00,,,0.01,Wunderground v.1.15,2013-03-11 23:20:00,
2013-03-11 18:30:00,46.2,31.4,29.97,SSE,163,4.0,4.0,56,0.00,,,0.01,Wunderground v.1.15,2013-03-11 23:30:00,
2013-03-11 18:40:00,45.4,31.5,29.97,SE,138,3.0,3.0,58,0.00,,,0.01,Wunderground v.1.15,2013-03-11 23:40:00,
2013-03-11 18:50:00,44.9,31.4,29.98,SSE,156,3.0,3.0,59,0.00,,,0.01,Wunderground v.1.15,2013-03-11 23:50:00,
2013-03-11 19:00:00,44.3,31.3,29.97,SE,136,2.0,2.0,60,0.00,,,0.01,Wunderground v.1.15,2013-03-12 00:00:00,
2013-03-11 19:10:00,43.9,31.7,29.98,SSE,155,2.0,4.0,62,0.00,,,0.01,Wunderground v.1.15,2013-03-12 00:10:00,
2013-03-11 19:20:00,43.4,31.6,29.97,SE,130,2.0,2.0,63,0.00,,,0.01,Wunderground v.1.15,2013-03-12 00:20:00,
2013-03-11 19:30:00,42.7,31.7,29.98,ESE,121,0.0,0.0,65,0.00,,,0.01,Wunderground v.1.15,2013-03-12 00:30:00,
2013-03-11 19:40:00,41.7,31.9,29.98,ESE,122,0.0,0.0,68,0.00,,,0.01,Wunderground v.1.15,2013-03-12 00:40:00,
2013-03-11 19:50:00,40.6,31.6,29.98,ESE,121,0.0,0.0,70,0.00,,,0.01,Wunderground v.1.15,2013-03-12 00:50:00,
2013-03-11 20:00:00,39.5,31.6,29.99,ESE,121,0.0,0.0,73,0.00,,,0.01,Wunderground v.1.15,2013-03-12 01:00:00,
2013-03-11 20:10:00,38.2,31.3,29.99,ESE,121,0.0,0.0,76,0.00,,,0.01,Wunderground v.1.15,2013-03-12 01:10:00,
2013-03-11 20:20:00,37.2,31.0,29.99,ESE,121,0.0,0.0,78,0.00,,,0.01,Wunderground v.1.15,2013-03-12 01:20:00,
2013-03-11 20:30:00,36.7,31.1,30.00,North,4,0.0,0.0,80,0.00,,,0.01,Wunderground v.1.15,2013-03-12 01:30:00,
2013-03-11 20:40:00,36.4,30.8,30.01,NNE,14,2.0,2.0,80,0.00,,,0.01,Wunderground v.1.15,2013-03-12 01:40:00,
2013-03-11 20:50:00,36.1,30.5,30.01,North,355,0.0,0.0,80,0.00,,,0.01,Wunderground v.1.15,2013-03-12 01:50:00,
2013-03-11 21:00:00,36.1,30.5,30.02,North,8,0.0,0.0,80,0.00,,,0.01,Wunderground v.1.15,2013-03-12 02:00:00,
2013-03-11 21:10:00,36.1,30.5,30.02,North,7,0.0,0.0,80,0.00,,,0.01,Wunderground v.1.15,2013-03-12 02:10:00,
2013-03-11 21:20:00,36.1,31.1,30.03,North,7,0.0,0.0,82,0.00,,,0.01,Wunderground v.1.15,2013-03-12 02:20:00,
2013-03-11 21:30:00,36.2,30.9,30.03,North,7,0.0,0.0,81,0.00,,,0.01,Wunderground v.1.15,2013-03-12 02:30:00,
2013-03-11 21:40:00,35.9,31.2,30.05,NW,320,0.0,0.0,83,0.00,,,0.01,Wunderground v.1.15,2013-03-12 02:40:00,
2013-03-11 21:50:00,35.4,31.3,30.05,NW,321,0.0,0.0,85,0.00,,,0.01,Wunderground v.1.15,2013-03-12 02:50:00,
2013-03-11 22:00:00,35.1,31.0,30.05,NW,320,0.0,0.0,85,0.00,,,0.01,Wunderground v.1.15,2013-03-12 03:00:00,
2013-03-11 22:10:00,35.0,31.2,30.06,NW,320,0.0,0.0,86,0.00,,,0.01,Wunderground v.1.15,2013-03-12 03:10:00,
2013-03-11 22:20:00,34.8,31.0,30.05,NW,320,0.0,0.0,86,0.00,,,0.01,Wunderground v.1.15,2013-03-12 03:20:00,
2013-03-11 22:30:00,34.7,30.9,30.06,NW,321,0.0,0.0,86,0.00,,,0.01,Wunderground v.1.15,2013-03-12 03:30:00,
2013-03-11 22:40:00,34.8,31.3,30.07,NW,320,0.0,0.0,87,0.00,,,0.01,Wunderground v.1.15,2013-03-12 03:40:00,
2013-03-11 22:50:00,35.1,31.6,30.09,NNE,19,2.0,2.0,87,0.00,,,0.01,Wunderground v.1.15,2013-03-12 03:50:00,
2013-03-11 23:00:00,35.2,31.7,30.08,NW,309,0.0,0.0,87,0.00,,,0.01,Wunderground v.1.15,2013-03-12 04:00:00,
2013-03-11 23:10:00,37.2,32.5,30.09,North,360,1.0,1.0,83,0.00,,,0.01,Wunderground v.1.15,2013-03-12 04:10:00,
2013-03-11 23:20:00,38.4,32.5,30.09,North,355,1.0,1.0,79,0.00,,,0.01,Wunderground v.1.15,2013-03-12 04:20:00,
2013-03-11 23:30:00,38.4,32.1,30.09,North,355,0.0,0.0,78,0.00,,,0.01,Wunderground v.1.15,2013-03-12 04:30:00,
2013-03-11 23:40:00,37.8,31.9,30.10,North,355,0.0,0.0,79,0.00,,,0.01,Wunderground v.1.15,2013-03-12 04:40:00,
2013-03-11 23:50:00,37.2,31.9,30.10,WNW,290,0.0,0.0,81,0.00,,,0.01,Wunderground v.1.15,2013-03-12 04:50:00,